sensor_id;sensor_type;location;lat;lon;timestamp;P1;durP1;ratioP1;P2;durP2;ratioP2
75246;SDS011;63844;50.042;19.224;2023-11-21T00:00:32;9.40;;;4.50;;
75246;SDS011;63844;50.042;19.224;2023-11-21T00:02:28;10.20;;;5.10;;
75246;SDS011;63844;50.042;19.224;2023-11-21T00:04:05;12.30;;;4.80;;
75246;SDS011;63844;50.042;19.224;2023-11-21T00:05:43;10.60;;;5.60;;
75246;SDS011;63844;50.042;19.224;2023-11-21T00:07:20;13.40;;;6.40;;
75246;SDS011;63844;50.042;19.224;2023-11-21T00:08:57;12.10;;;6.00;;
75246;SDS011;63844;50.042;19.224;2023-11-21T00:10:34;12.30;;;6.00;;
75246;SDS011;63844;50.042;19.224;2023-11-21T00:12:11;10.30;;;5.60;;
75246;SDS011;63844;50.042;19.224;2023-11-21T00:13:48;11.30;;;6.20;;
75246;SDS011;63844;50.042;19.224;2023-11-21T00:15:24;11.80;;;5.30;;
75246;SDS011;63844;50.042;19.224;2023-11-21T00:17:03;9.70;;;5.50;;
75246;SDS011;63844;50.042;19.224;2023-11-21T00:18:39;10.60;;;5.60;;
75246;SDS011;63844;50.042;19.224;2023-11-21T00:20:16;10.30;;;6.00;;
75246;SDS011;63844;50.042;19.224;2023-11-21T00:21:53;13.40;;;5.70;;
75246;SDS011;63844;50.042;19.224;2023-11-21T00:23:30;10.00;;;5.80;;
75246;SDS011;63844;50.042;19.224;2023-11-21T00:25:07;14.20;;;6.70;;
75246;SDS011;63844;50.042;19.224;2023-11-21T00:26:45;11.20;;;5.60;;
75246;SDS011;63844;50.042;19.224;2023-11-21T00:28:22;10.60;;;5.60;;
75246;SDS011;63844;50.042;19.224;2023-11-21T00:29:59;11.50;;;5.70;;
75246;SDS011;63844;50.042;19.224;2023-11-21T00:31:35;10.40;;;5.60;;
75246;SDS011;63844;50.042;19.224;2023-11-21T00:33:12;9.70;;;5.60;;
75246;SDS011;63844;50.042;19.224;2023-11-21T00:34:49;12.20;;;6.30;;
75246;SDS011;63844;50.042;19.224;2023-11-21T00:36:26;11.10;;;5.80;;
75246;SDS011;63844;50.042;19.224;2023-11-21T00:38:02;10.30;;;6.50;;
75246;SDS011;63844;50.042;19.224;2023-11-21T00:39:39;10.60;;;5.80;;
75246;SDS011;63844;50.042;19.224;2023-11-21T00:41:16;10.30;;;5.60;;
75246;SDS011;63844;50.042;19.224;2023-11-21T00:42:53;9.70;;;5.80;;
75246;SDS011;63844;50.042;19.224;2023-11-21T00:44:29;10.40;;;5.30;;
75246;SDS011;63844;50.042;19.224;2023-11-21T00:46:06;10.50;;;5.80;;
75246;SDS011;63844;50.042;19.224;2023-11-21T00:47:46;10.10;;;6.10;;
75246;SDS011;63844;50.042;19.224;2023-11-21T00:49:22;10.60;;;6.10;;
75246;SDS011;63844;50.042;19.224;2023-11-21T00:50:59;11.80;;;7.00;;
75246;SDS011;63844;50.042;19.224;2023-11-21T00:52:36;10.30;;;6.00;;
75246;SDS011;63844;50.042;19.224;2023-11-21T00:54:13;11.40;;;5.90;;
75246;SDS011;63844;50.042;19.224;2023-11-21T00:55:50;12.40;;;5.50;;
75246;SDS011;63844;50.042;19.224;2023-11-21T00:57:28;10.80;;;6.40;;
75246;SDS011;63844;50.042;19.224;2023-11-21T00:59:05;10.30;;;6.40;;
75246;SDS011;63844;50.042;19.224;2023-11-21T01:00:43;10.10;;;6.20;;
75246;SDS011;63844;50.042;19.224;2023-11-21T01:02:20;10.70;;;5.90;;
75246;SDS011;63844;50.042;19.224;2023-11-21T01:03:56;8.70;;;5.80;;
75246;SDS011;63844;50.042;19.224;2023-11-21T01:05:33;12.20;;;5.90;;
75246;SDS011;63844;50.042;19.224;2023-11-21T01:07:10;10.20;;;6.10;;
75246;SDS011;63844;50.042;19.224;2023-11-21T01:08:47;11.80;;;6.10;;
75246;SDS011;63844;50.042;19.224;2023-11-21T01:10:24;13.10;;;6.00;;
75246;SDS011;63844;50.042;19.224;2023-11-21T01:12:01;9.50;;;6.10;;
75246;SDS011;63844;50.042;19.224;2023-11-21T01:13:41;11.00;;;6.10;;
75246;SDS011;63844;50.042;19.224;2023-11-21T01:15:18;11.00;;;6.40;;
75246;SDS011;63844;50.042;19.224;2023-11-21T01:16:55;10.10;;;5.50;;
75246;SDS011;63844;50.042;19.224;2023-11-21T01:18:32;12.70;;;6.50;;
75246;SDS011;63844;50.042;19.224;2023-11-21T01:20:09;10.10;;;6.30;;
75246;SDS011;63844;50.042;19.224;2023-11-21T01:21:48;13.40;;;6.80;;
75246;SDS011;63844;50.042;19.224;2023-11-21T01:23:25;12.40;;;6.60;;
75246;SDS011;63844;50.042;19.224;2023-11-21T01:25:03;11.30;;;6.50;;
75246;SDS011;63844;50.042;19.224;2023-11-21T01:26:43;12.70;;;6.90;;
75246;SDS011;63844;50.042;19.224;2023-11-21T01:28:22;9.60;;;6.40;;
75246;SDS011;63844;50.042;19.224;2023-11-21T01:29:58;13.60;;;6.90;;
75246;SDS011;63844;50.042;19.224;2023-11-21T01:31:35;12.40;;;7.30;;
75246;SDS011;63844;50.042;19.224;2023-11-21T01:33:12;12.40;;;7.00;;
75246;SDS011;63844;50.042;19.224;2023-11-21T01:34:49;12.40;;;6.70;;
75246;SDS011;63844;50.042;19.224;2023-11-21T01:36:30;13.00;;;6.90;;
75246;SDS011;63844;50.042;19.224;2023-11-21T01:38:11;10.60;;;6.30;;
75246;SDS011;63844;50.042;19.224;2023-11-21T01:39:48;13.60;;;6.10;;
75246;SDS011;63844;50.042;19.224;2023-11-21T01:41:26;10.40;;;6.10;;
75246;SDS011;63844;50.042;19.224;2023-11-21T01:43:04;11.70;;;6.90;;
75246;SDS011;63844;50.042;19.224;2023-11-21T01:44:41;11.60;;;5.60;;
75246;SDS011;63844;50.042;19.224;2023-11-21T01:46:18;12.40;;;6.00;;
75246;SDS011;63844;50.042;19.224;2023-11-21T01:47:55;10.80;;;6.10;;
75246;SDS011;63844;50.042;19.224;2023-11-21T01:49:33;9.90;;;6.30;;
75246;SDS011;63844;50.042;19.224;2023-11-21T01:51:10;9.50;;;5.50;;
75246;SDS011;63844;50.042;19.224;2023-11-21T01:52:47;11.20;;;5.50;;
75246;SDS011;63844;50.042;19.224;2023-11-21T01:54:25;10.80;;;5.60;;
75246;SDS011;63844;50.042;19.224;2023-11-21T01:56:08;10.80;;;5.30;;
75246;SDS011;63844;50.042;19.224;2023-11-21T01:57:46;10.20;;;5.20;;
75246;SDS011;63844;50.042;19.224;2023-11-21T01:59:23;8.70;;;5.30;;
75246;SDS011;63844;50.042;19.224;2023-11-21T02:01:00;8.90;;;4.70;;
75246;SDS011;63844;50.042;19.224;2023-11-21T02:02:37;9.90;;;5.30;;
75246;SDS011;63844;50.042;19.224;2023-11-21T02:04:13;7.30;;;4.60;;
75246;SDS011;63844;50.042;19.224;2023-11-21T02:05:50;9.50;;;5.10;;
75246;SDS011;63844;50.042;19.224;2023-11-21T02:07:28;7.60;;;4.00;;
75246;SDS011;63844;50.042;19.224;2023-11-21T02:09:05;10.30;;;5.60;;
75246;SDS011;63844;50.042;19.224;2023-11-21T02:10:42;8.20;;;4.60;;
75246;SDS011;63844;50.042;19.224;2023-11-21T02:12:18;8.10;;;4.00;;
75246;SDS011;63844;50.042;19.224;2023-11-21T02:13:55;8.60;;;4.00;;
75246;SDS011;63844;50.042;19.224;2023-11-21T02:15:31;13.10;;;4.70;;
75246;SDS011;63844;50.042;19.224;2023-11-21T02:17:08;7.90;;;3.70;;
75246;SDS011;63844;50.042;19.224;2023-11-21T02:18:45;7.40;;;4.10;;
75246;SDS011;63844;50.042;19.224;2023-11-21T02:20:23;9.10;;;4.00;;
75246;SDS011;63844;50.042;19.224;2023-11-21T02:22:01;8.40;;;3.90;;
75246;SDS011;63844;50.042;19.224;2023-11-21T02:23:42;10.70;;;4.80;;
75246;SDS011;63844;50.042;19.224;2023-11-21T02:25:20;10.00;;;4.30;;
75246;SDS011;63844;50.042;19.224;2023-11-21T02:26:57;9.70;;;3.90;;
75246;SDS011;63844;50.042;19.224;2023-11-21T02:28:34;5.40;;;3.40;;
75246;SDS011;63844;50.042;19.224;2023-11-21T02:30:11;7.60;;;3.80;;
75246;SDS011;63844;50.042;19.224;2023-11-21T02:31:51;9.80;;;3.90;;
75246;SDS011;63844;50.042;19.224;2023-11-21T02:33:31;7.90;;;3.90;;
75246;SDS011;63844;50.042;19.224;2023-11-21T02:35:10;6.50;;;3.70;;
75246;SDS011;63844;50.042;19.224;2023-11-21T02:36:48;8.50;;;3.60;;
75246;SDS011;63844;50.042;19.224;2023-11-21T02:38:28;7.00;;;3.70;;
75246;SDS011;63844;50.042;19.224;2023-11-21T02:40:05;9.00;;;4.30;;
75246;SDS011;63844;50.042;19.224;2023-11-21T02:41:43;10.20;;;5.20;;
75246;SDS011;63844;50.042;19.224;2023-11-21T02:43:20;6.80;;;4.40;;
75246;SDS011;63844;50.042;19.224;2023-11-21T02:44:57;8.10;;;4.80;;
75246;SDS011;63844;50.042;19.224;2023-11-21T02:46:34;6.90;;;4.30;;
75246;SDS011;63844;50.042;19.224;2023-11-21T02:48:11;7.70;;;5.00;;
75246;SDS011;63844;50.042;19.224;2023-11-21T02:49:47;8.50;;;4.70;;
75246;SDS011;63844;50.042;19.224;2023-11-21T02:51:24;8.60;;;4.80;;
75246;SDS011;63844;50.042;19.224;2023-11-21T02:53:01;10.00;;;5.10;;
75246;SDS011;63844;50.042;19.224;2023-11-21T02:54:37;10.90;;;5.40;;
75246;SDS011;63844;50.042;19.224;2023-11-21T02:56:14;9.80;;;5.60;;
75246;SDS011;63844;50.042;19.224;2023-11-21T02:57:51;11.60;;;5.40;;
75246;SDS011;63844;50.042;19.224;2023-11-21T02:59:27;14.50;;;5.60;;
75246;SDS011;63844;50.042;19.224;2023-11-21T03:01:04;11.40;;;5.30;;
75246;SDS011;63844;50.042;19.224;2023-11-21T03:02:42;10.40;;;6.20;;
75246;SDS011;63844;50.042;19.224;2023-11-21T03:04:19;9.90;;;5.90;;
75246;SDS011;63844;50.042;19.224;2023-11-21T03:05:57;9.50;;;5.70;;
75246;SDS011;63844;50.042;19.224;2023-11-21T03:07:35;11.40;;;5.90;;
75246;SDS011;63844;50.042;19.224;2023-11-21T03:09:13;11.20;;;5.00;;
75246;SDS011;63844;50.042;19.224;2023-11-21T03:10:50;6.70;;;4.50;;
75246;SDS011;63844;50.042;19.224;2023-11-21T03:12:26;6.90;;;4.50;;
75246;SDS011;63844;50.042;19.224;2023-11-21T03:14:03;7.50;;;4.50;;
75246;SDS011;63844;50.042;19.224;2023-11-21T03:15:41;13.90;;;4.30;;
75246;SDS011;63844;50.042;19.224;2023-11-21T03:17:19;10.90;;;4.20;;
75246;SDS011;63844;50.042;19.224;2023-11-21T03:18:58;8.70;;;4.40;;
75246;SDS011;63844;50.042;19.224;2023-11-21T03:20:35;8.20;;;4.20;;
75246;SDS011;63844;50.042;19.224;2023-11-21T03:22:12;8.50;;;4.40;;
75246;SDS011;63844;50.042;19.224;2023-11-21T03:23:49;12.40;;;5.60;;
75246;SDS011;63844;50.042;19.224;2023-11-21T03:25:26;7.40;;;4.30;;
75246;SDS011;63844;50.042;19.224;2023-11-21T03:27:04;7.60;;;4.40;;
75246;SDS011;63844;50.042;19.224;2023-11-21T03:28:41;8.80;;;4.10;;
75246;SDS011;63844;50.042;19.224;2023-11-21T03:30:17;7.70;;;4.10;;
75246;SDS011;63844;50.042;19.224;2023-11-21T03:31:54;8.90;;;4.10;;
75246;SDS011;63844;50.042;19.224;2023-11-21T03:33:31;7.50;;;4.10;;
75246;SDS011;63844;50.042;19.224;2023-11-21T03:35:10;7.10;;;3.60;;
75246;SDS011;63844;50.042;19.224;2023-11-21T03:36:47;7.60;;;4.40;;
75246;SDS011;63844;50.042;19.224;2023-11-21T03:38:23;7.20;;;3.90;;
75246;SDS011;63844;50.042;19.224;2023-11-21T03:40:00;10.20;;;3.70;;
75246;SDS011;63844;50.042;19.224;2023-11-21T03:41:39;9.00;;;4.10;;
75246;SDS011;63844;50.042;19.224;2023-11-21T03:43:16;6.00;;;3.50;;
75246;SDS011;63844;50.042;19.224;2023-11-21T03:44:53;7.30;;;3.50;;
75246;SDS011;63844;50.042;19.224;2023-11-21T03:46:30;7.00;;;3.80;;
75246;SDS011;63844;50.042;19.224;2023-11-21T03:48:06;7.70;;;3.60;;
75246;SDS011;63844;50.042;19.224;2023-11-21T03:49:45;6.30;;;3.50;;
75246;SDS011;63844;50.042;19.224;2023-11-21T03:51:22;6.70;;;4.20;;
75246;SDS011;63844;50.042;19.224;2023-11-21T03:52:58;8.10;;;4.10;;
75246;SDS011;63844;50.042;19.224;2023-11-21T03:54:35;8.40;;;4.10;;
75246;SDS011;63844;50.042;19.224;2023-11-21T03:56:13;8.40;;;4.00;;
75246;SDS011;63844;50.042;19.224;2023-11-21T03:57:50;9.80;;;4.30;;
75246;SDS011;63844;50.042;19.224;2023-11-21T03:59:28;10.10;;;5.60;;
75246;SDS011;63844;50.042;19.224;2023-11-21T04:01:04;11.50;;;5.60;;
75246;SDS011;63844;50.042;19.224;2023-11-21T04:02:41;11.20;;;6.40;;
75246;SDS011;63844;50.042;19.224;2023-11-21T04:04:18;12.20;;;6.60;;
75246;SDS011;63844;50.042;19.224;2023-11-21T04:05:56;13.40;;;6.50;;
75246;SDS011;63844;50.042;19.224;2023-11-21T04:07:33;11.30;;;6.70;;
75246;SDS011;63844;50.042;19.224;2023-11-21T04:09:10;14.30;;;7.30;;
75246;SDS011;63844;50.042;19.224;2023-11-21T04:10:46;12.30;;;6.20;;
75246;SDS011;63844;50.042;19.224;2023-11-21T04:12:23;12.40;;;6.60;;
75246;SDS011;63844;50.042;19.224;2023-11-21T04:13:59;10.70;;;6.60;;
75246;SDS011;63844;50.042;19.224;2023-11-21T04:15:36;12.60;;;6.60;;
75246;SDS011;63844;50.042;19.224;2023-11-21T04:17:13;11.20;;;6.10;;
75246;SDS011;63844;50.042;19.224;2023-11-21T04:18:49;11.10;;;5.30;;
75246;SDS011;63844;50.042;19.224;2023-11-21T04:20:26;8.30;;;4.80;;
75246;SDS011;63844;50.042;19.224;2023-11-21T04:22:03;9.60;;;5.40;;
75246;SDS011;63844;50.042;19.224;2023-11-21T04:23:40;10.30;;;5.30;;
75246;SDS011;63844;50.042;19.224;2023-11-21T04:25:17;10.10;;;5.20;;
75246;SDS011;63844;50.042;19.224;2023-11-21T04:26:54;8.50;;;4.40;;
75246;SDS011;63844;50.042;19.224;2023-11-21T04:28:30;11.40;;;5.60;;
75246;SDS011;63844;50.042;19.224;2023-11-21T04:30:07;14.60;;;4.20;;
75246;SDS011;63844;50.042;19.224;2023-11-21T04:31:46;8.80;;;4.70;;
75246;SDS011;63844;50.042;19.224;2023-11-21T04:33:25;11.80;;;6.60;;
75246;SDS011;63844;50.042;19.224;2023-11-21T04:35:02;8.50;;;4.40;;
75246;SDS011;63844;50.042;19.224;2023-11-21T04:36:40;9.90;;;5.00;;
75246;SDS011;63844;50.042;19.224;2023-11-21T04:38:17;9.40;;;5.50;;
75246;SDS011;63844;50.042;19.224;2023-11-21T04:39:53;12.90;;;5.80;;
75246;SDS011;63844;50.042;19.224;2023-11-21T04:41:30;9.90;;;5.20;;
75246;SDS011;63844;50.042;19.224;2023-11-21T04:43:08;9.50;;;4.70;;
75246;SDS011;63844;50.042;19.224;2023-11-21T04:44:44;11.00;;;5.40;;
75246;SDS011;63844;50.042;19.224;2023-11-21T04:46:21;8.40;;;5.30;;
75246;SDS011;63844;50.042;19.224;2023-11-21T04:47:58;7.50;;;4.80;;
75246;SDS011;63844;50.042;19.224;2023-11-21T04:49:34;11.00;;;5.10;;
75246;SDS011;63844;50.042;19.224;2023-11-21T04:51:11;11.30;;;5.80;;
75246;SDS011;63844;50.042;19.224;2023-11-21T04:52:49;10.90;;;5.40;;
75246;SDS011;63844;50.042;19.224;2023-11-21T04:54:25;9.80;;;5.10;;
75246;SDS011;63844;50.042;19.224;2023-11-21T04:56:02;8.40;;;4.50;;
75246;SDS011;63844;50.042;19.224;2023-11-21T04:57:39;10.40;;;4.90;;
75246;SDS011;63844;50.042;19.224;2023-11-21T04:59:19;8.80;;;5.20;;
75246;SDS011;63844;50.042;19.224;2023-11-21T05:00:55;11.10;;;5.80;;
75246;SDS011;63844;50.042;19.224;2023-11-21T05:02:32;9.50;;;5.10;;
75246;SDS011;63844;50.042;19.224;2023-11-21T05:04:10;10.50;;;5.30;;
75246;SDS011;63844;50.042;19.224;2023-11-21T05:05:47;10.70;;;5.30;;
75246;SDS011;63844;50.042;19.224;2023-11-21T05:07:24;10.60;;;5.10;;
75246;SDS011;63844;50.042;19.224;2023-11-21T05:09:04;10.90;;;5.60;;
75246;SDS011;63844;50.042;19.224;2023-11-21T05:10:41;9.70;;;6.10;;
75246;SDS011;63844;50.042;19.224;2023-11-21T05:12:17;14.20;;;6.30;;
75246;SDS011;63844;50.042;19.224;2023-11-21T05:13:54;14.10;;;6.60;;
75246;SDS011;63844;50.042;19.224;2023-11-21T05:15:35;10.30;;;6.30;;
75246;SDS011;63844;50.042;19.224;2023-11-21T05:17:12;12.70;;;7.80;;
75246;SDS011;63844;50.042;19.224;2023-11-21T05:18:48;12.70;;;6.80;;
75246;SDS011;63844;50.042;19.224;2023-11-21T05:20:27;14.80;;;9.30;;
75246;SDS011;63844;50.042;19.224;2023-11-21T05:22:04;17.10;;;10.40;;
75246;SDS011;63844;50.042;19.224;2023-11-21T05:23:41;16.90;;;9.50;;
75246;SDS011;63844;50.042;19.224;2023-11-21T05:25:18;16.00;;;8.20;;
75246;SDS011;63844;50.042;19.224;2023-11-21T05:26:55;15.50;;;7.70;;
75246;SDS011;63844;50.042;19.224;2023-11-21T05:28:32;12.60;;;7.70;;
75246;SDS011;63844;50.042;19.224;2023-11-21T05:30:09;12.00;;;6.30;;
75246;SDS011;63844;50.042;19.224;2023-11-21T05:31:48;13.20;;;6.70;;
75246;SDS011;63844;50.042;19.224;2023-11-21T05:33:25;9.80;;;6.00;;
75246;SDS011;63844;50.042;19.224;2023-11-21T05:35:01;11.00;;;5.90;;
75246;SDS011;63844;50.042;19.224;2023-11-21T05:36:38;9.90;;;6.50;;
75246;SDS011;63844;50.042;19.224;2023-11-21T05:38:15;9.40;;;4.90;;
75246;SDS011;63844;50.042;19.224;2023-11-21T05:39:52;9.40;;;5.40;;
75246;SDS011;63844;50.042;19.224;2023-11-21T05:41:30;10.20;;;5.50;;
75246;SDS011;63844;50.042;19.224;2023-11-21T05:43:07;9.30;;;6.20;;
75246;SDS011;63844;50.042;19.224;2023-11-21T05:44:44;11.60;;;5.80;;
75246;SDS011;63844;50.042;19.224;2023-11-21T05:46:21;13.50;;;6.70;;
75246;SDS011;63844;50.042;19.224;2023-11-21T05:47:58;13.10;;;6.70;;
75246;SDS011;63844;50.042;19.224;2023-11-21T05:49:35;11.30;;;6.80;;
75246;SDS011;63844;50.042;19.224;2023-11-21T05:51:12;11.40;;;6.40;;
75246;SDS011;63844;50.042;19.224;2023-11-21T05:52:50;10.60;;;6.60;;
75246;SDS011;63844;50.042;19.224;2023-11-21T05:54:27;9.20;;;5.40;;
75246;SDS011;63844;50.042;19.224;2023-11-21T05:56:04;10.30;;;5.70;;
75246;SDS011;63844;50.042;19.224;2023-11-21T05:57:41;10.30;;;5.70;;
75246;SDS011;63844;50.042;19.224;2023-11-21T05:59:19;11.60;;;7.50;;
75246;SDS011;63844;50.042;19.224;2023-11-21T06:00:56;12.50;;;6.80;;
75246;SDS011;63844;50.042;19.224;2023-11-21T06:02:34;11.40;;;6.30;;
75246;SDS011;63844;50.042;19.224;2023-11-21T06:04:10;11.60;;;5.60;;
75246;SDS011;63844;50.042;19.224;2023-11-21T06:05:47;10.60;;;6.50;;
75246;SDS011;63844;50.042;19.224;2023-11-21T06:07:24;12.50;;;6.60;;
75246;SDS011;63844;50.042;19.224;2023-11-21T06:09:01;11.70;;;6.60;;
75246;SDS011;63844;50.042;19.224;2023-11-21T06:10:38;13.10;;;6.00;;
75246;SDS011;63844;50.042;19.224;2023-11-21T06:12:16;12.30;;;6.90;;
75246;SDS011;63844;50.042;19.224;2023-11-21T06:13:52;11.80;;;6.40;;
75246;SDS011;63844;50.042;19.224;2023-11-21T06:15:29;13.00;;;6.80;;
75246;SDS011;63844;50.042;19.224;2023-11-21T06:17:06;14.60;;;6.90;;
75246;SDS011;63844;50.042;19.224;2023-11-21T06:18:43;11.80;;;6.70;;
75246;SDS011;63844;50.042;19.224;2023-11-21T06:20:20;11.60;;;6.10;;
75246;SDS011;63844;50.042;19.224;2023-11-21T06:21:58;13.00;;;7.20;;
75246;SDS011;63844;50.042;19.224;2023-11-21T06:23:35;12.80;;;6.80;;
75246;SDS011;63844;50.042;19.224;2023-11-21T06:25:12;14.30;;;7.00;;
75246;SDS011;63844;50.042;19.224;2023-11-21T06:26:50;13.60;;;7.00;;
75246;SDS011;63844;50.042;19.224;2023-11-21T06:28:26;14.90;;;8.20;;
75246;SDS011;63844;50.042;19.224;2023-11-21T06:30:03;16.20;;;8.00;;
75246;SDS011;63844;50.042;19.224;2023-11-21T06:31:40;15.50;;;8.60;;
75246;SDS011;63844;50.042;19.224;2023-11-21T06:33:17;16.40;;;8.30;;
75246;SDS011;63844;50.042;19.224;2023-11-21T06:34:54;17.20;;;8.80;;
75246;SDS011;63844;50.042;19.224;2023-11-21T06:36:31;13.00;;;7.30;;
75246;SDS011;63844;50.042;19.224;2023-11-21T06:38:07;13.40;;;7.10;;
75246;SDS011;63844;50.042;19.224;2023-11-21T06:39:45;13.70;;;7.60;;
75246;SDS011;63844;50.042;19.224;2023-11-21T06:41:22;13.80;;;6.50;;
75246;SDS011;63844;50.042;19.224;2023-11-21T06:43:00;18.20;;;8.70;;
75246;SDS011;63844;50.042;19.224;2023-11-21T06:44:36;13.60;;;7.40;;
75246;SDS011;63844;50.042;19.224;2023-11-21T06:46:14;11.50;;;7.00;;
75246;SDS011;63844;50.042;19.224;2023-11-21T06:47:55;11.90;;;6.20;;
75246;SDS011;63844;50.042;19.224;2023-11-21T06:49:32;12.00;;;6.90;;
75246;SDS011;63844;50.042;19.224;2023-11-21T06:51:08;10.90;;;6.70;;
75246;SDS011;63844;50.042;19.224;2023-11-21T06:52:45;12.90;;;7.00;;
75246;SDS011;63844;50.042;19.224;2023-11-21T06:54:22;12.60;;;7.10;;
75246;SDS011;63844;50.042;19.224;2023-11-21T06:55:59;14.00;;;6.40;;
75246;SDS011;63844;50.042;19.224;2023-11-21T06:57:36;12.10;;;6.70;;
75246;SDS011;63844;50.042;19.224;2023-11-21T06:59:13;12.50;;;6.20;;
75246;SDS011;63844;50.042;19.224;2023-11-21T07:00:50;14.40;;;6.70;;
75246;SDS011;63844;50.042;19.224;2023-11-21T07:02:28;11.40;;;6.20;;
75246;SDS011;63844;50.042;19.224;2023-11-21T07:04:05;10.80;;;4.50;;
75246;SDS011;63844;50.042;19.224;2023-11-21T07:05:43;13.50;;;6.60;;
75246;SDS011;63844;50.042;19.224;2023-11-21T07:07:19;14.80;;;7.00;;
75246;SDS011;63844;50.042;19.224;2023-11-21T07:08:56;13.00;;;6.60;;
75246;SDS011;63844;50.042;19.224;2023-11-21T07:10:33;11.30;;;6.10;;
75246;SDS011;63844;50.042;19.224;2023-11-21T07:12:11;12.40;;;6.40;;
75246;SDS011;63844;50.042;19.224;2023-11-21T07:13:48;13.30;;;7.20;;
75246;SDS011;63844;50.042;19.224;2023-11-21T07:15:25;11.80;;;6.60;;
75246;SDS011;63844;50.042;19.224;2023-11-21T07:17:02;15.10;;;6.90;;
75246;SDS011;63844;50.042;19.224;2023-11-21T07:18:39;14.30;;;6.90;;
75246;SDS011;63844;50.042;19.224;2023-11-21T07:20:16;12.20;;;6.80;;
75246;SDS011;63844;50.042;19.224;2023-11-21T07:21:53;13.70;;;6.50;;
75246;SDS011;63844;50.042;19.224;2023-11-21T07:23:30;16.60;;;7.20;;
75246;SDS011;63844;50.042;19.224;2023-11-21T07:25:07;13.50;;;7.10;;
75246;SDS011;63844;50.042;19.224;2023-11-21T07:26:45;12.30;;;7.50;;
75246;SDS011;63844;50.042;19.224;2023-11-21T07:28:22;11.70;;;7.50;;
75246;SDS011;63844;50.042;19.224;2023-11-21T07:29:59;14.30;;;7.90;;
75246;SDS011;63844;50.042;19.224;2023-11-21T07:31:35;19.40;;;8.70;;
75246;SDS011;63844;50.042;19.224;2023-11-21T07:33:12;15.30;;;6.80;;
75246;SDS011;63844;50.042;19.224;2023-11-21T07:34:49;16.20;;;8.20;;
75246;SDS011;63844;50.042;19.224;2023-11-21T07:36:26;15.70;;;7.50;;
75246;SDS011;63844;50.042;19.224;2023-11-21T07:38:03;12.10;;;7.00;;
75246;SDS011;63844;50.042;19.224;2023-11-21T07:39:40;11.70;;;6.90;;
75246;SDS011;63844;50.042;19.224;2023-11-21T07:41:18;15.80;;;6.90;;
75246;SDS011;63844;50.042;19.224;2023-11-21T07:42:55;15.60;;;6.90;;
75246;SDS011;63844;50.042;19.224;2023-11-21T07:44:33;10.50;;;6.30;;
75246;SDS011;63844;50.042;19.224;2023-11-21T07:46:10;12.20;;;6.00;;
75246;SDS011;63844;50.042;19.224;2023-11-21T07:47:48;9.30;;;5.80;;
75246;SDS011;63844;50.042;19.224;2023-11-21T07:49:25;11.70;;;7.00;;
75246;SDS011;63844;50.042;19.224;2023-11-21T07:51:03;14.00;;;6.60;;
75246;SDS011;63844;50.042;19.224;2023-11-21T07:52:45;12.80;;;6.40;;
75246;SDS011;63844;50.042;19.224;2023-11-21T07:54:22;10.90;;;6.40;;
75246;SDS011;63844;50.042;19.224;2023-11-21T07:56:02;15.80;;;6.20;;
75246;SDS011;63844;50.042;19.224;2023-11-21T07:57:40;12.50;;;6.20;;
75246;SDS011;63844;50.042;19.224;2023-11-21T07:59:17;12.00;;;6.50;;
75246;SDS011;63844;50.042;19.224;2023-11-21T08:00:54;15.90;;;7.00;;
75246;SDS011;63844;50.042;19.224;2023-11-21T08:02:31;15.00;;;7.20;;
75246;SDS011;63844;50.042;19.224;2023-11-21T08:04:08;12.40;;;6.90;;
75246;SDS011;63844;50.042;19.224;2023-11-21T08:05:44;13.80;;;7.80;;
75246;SDS011;63844;50.042;19.224;2023-11-21T08:07:21;9.70;;;5.90;;
75246;SDS011;63844;50.042;19.224;2023-11-21T08:08:58;10.80;;;6.20;;
75246;SDS011;63844;50.042;19.224;2023-11-21T08:10:35;15.40;;;8.00;;
75246;SDS011;63844;50.042;19.224;2023-11-21T08:12:12;13.30;;;6.00;;
75246;SDS011;63844;50.042;19.224;2023-11-21T08:13:51;11.50;;;5.60;;
75246;SDS011;63844;50.042;19.224;2023-11-21T08:15:28;11.30;;;6.20;;
75246;SDS011;63844;50.042;19.224;2023-11-21T08:17:05;12.50;;;5.80;;
75246;SDS011;63844;50.042;19.224;2023-11-21T08:18:42;10.10;;;5.60;;
75246;SDS011;63844;50.042;19.224;2023-11-21T08:20:19;14.50;;;5.90;;
75246;SDS011;63844;50.042;19.224;2023-11-21T08:21:56;13.20;;;5.50;;
75246;SDS011;63844;50.042;19.224;2023-11-21T08:23:32;15.30;;;6.40;;
75246;SDS011;63844;50.042;19.224;2023-11-21T08:25:10;15.10;;;6.50;;
75246;SDS011;63844;50.042;19.224;2023-11-21T08:26:47;12.70;;;5.70;;
75246;SDS011;63844;50.042;19.224;2023-11-21T08:28:24;10.90;;;6.40;;
75246;SDS011;63844;50.042;19.224;2023-11-21T08:30:02;12.80;;;6.10;;
75246;SDS011;63844;50.042;19.224;2023-11-21T08:31:40;13.30;;;6.00;;
75246;SDS011;63844;50.042;19.224;2023-11-21T08:33:17;13.50;;;6.30;;
75246;SDS011;63844;50.042;19.224;2023-11-21T08:34:54;13.00;;;6.90;;
75246;SDS011;63844;50.042;19.224;2023-11-21T08:36:30;12.80;;;6.60;;
75246;SDS011;63844;50.042;19.224;2023-11-21T08:38:08;15.90;;;7.80;;
75246;SDS011;63844;50.042;19.224;2023-11-21T08:39:47;12.90;;;6.70;;
75246;SDS011;63844;50.042;19.224;2023-11-21T08:41:24;12.10;;;7.30;;
75246;SDS011;63844;50.042;19.224;2023-11-21T08:43:02;13.40;;;7.60;;
75246;SDS011;63844;50.042;19.224;2023-11-21T08:44:40;19.70;;;9.50;;
75246;SDS011;63844;50.042;19.224;2023-11-21T08:46:17;18.30;;;9.90;;
75246;SDS011;63844;50.042;19.224;2023-11-21T08:47:54;16.80;;;9.00;;
75246;SDS011;63844;50.042;19.224;2023-11-21T08:49:31;20.50;;;9.80;;
75246;SDS011;63844;50.042;19.224;2023-11-21T08:51:09;14.50;;;8.30;;
75246;SDS011;63844;50.042;19.224;2023-11-21T08:52:47;19.00;;;9.60;;
75246;SDS011;63844;50.042;19.224;2023-11-21T08:54:24;17.60;;;10.20;;
75246;SDS011;63844;50.042;19.224;2023-11-21T08:56:02;15.30;;;9.60;;
75246;SDS011;63844;50.042;19.224;2023-11-21T08:57:40;19.80;;;9.00;;
75246;SDS011;63844;50.042;19.224;2023-11-21T08:59:21;20.00;;;9.30;;
75246;SDS011;63844;50.042;19.224;2023-11-21T09:00:58;21.40;;;9.10;;
75246;SDS011;63844;50.042;19.224;2023-11-21T09:02:35;16.20;;;7.80;;
75246;SDS011;63844;50.042;19.224;2023-11-21T09:04:12;15.50;;;8.00;;
75246;SDS011;63844;50.042;19.224;2023-11-21T09:05:50;14.00;;;8.30;;
75246;SDS011;63844;50.042;19.224;2023-11-21T09:07:27;15.20;;;7.60;;
75246;SDS011;63844;50.042;19.224;2023-11-21T09:09:04;15.40;;;8.10;;
75246;SDS011;63844;50.042;19.224;2023-11-21T09:10:42;15.50;;;8.50;;
75246;SDS011;63844;50.042;19.224;2023-11-21T09:12:25;14.40;;;8.10;;
75246;SDS011;63844;50.042;19.224;2023-11-21T09:14:03;16.60;;;7.90;;
75246;SDS011;63844;50.042;19.224;2023-11-21T09:15:39;16.10;;;7.80;;
75246;SDS011;63844;50.042;19.224;2023-11-21T09:17:16;14.60;;;7.30;;
75246;SDS011;63844;50.042;19.224;2023-11-21T09:18:53;15.30;;;7.20;;
75246;SDS011;63844;50.042;19.224;2023-11-21T09:20:30;16.10;;;7.70;;
75246;SDS011;63844;50.042;19.224;2023-11-21T09:22:07;19.10;;;7.00;;
75246;SDS011;63844;50.042;19.224;2023-11-21T09:23:44;16.50;;;7.10;;
75246;SDS011;63844;50.042;19.224;2023-11-21T09:25:21;13.00;;;6.70;;
75246;SDS011;63844;50.042;19.224;2023-11-21T09:26:59;12.70;;;6.60;;
75246;SDS011;63844;50.042;19.224;2023-11-21T09:28:36;11.80;;;6.00;;
75246;SDS011;63844;50.042;19.224;2023-11-21T09:30:19;14.20;;;5.90;;
75246;SDS011;63844;50.042;19.224;2023-11-21T09:31:56;11.70;;;5.60;;